Terminal Aerodrome Forecast
Issued by NWS

Home | Current Version | Previous Version | Text Only | Print | Product List | Glossary On
Versions: 1 2 3 4 5 6 7 8 9 10 11 12 13 14 15
057
FTUS42 KMLB 201733
TAFSFB
TAF
KSFB 201733Z 2018/2118 22010KT P6SM FEW040 SCT100
     FM210000 23005KT P6SM SCT120
     FM210800 20003KT 3SM BR SCT004 BKN008
     FM211400 19008KT P6SM FEW020 BKN150=

USA.gov is the U.S. government's official web portal to all federal, state and local government web resources and services.